EW4353 Weather Reports


Display with metric or nautical units.
time (UTC)temp
F
wind
direction
speed
MPH
gust
MPH
rain 1hr
in
rain 24hr
in
rain mn
in
humidity
%
barometer
mb
20210728094552 82 227 6.0 16.0 0.00 0.00 0.00 34 1004.9
20210728093043 84 227 10.0 18.0 0.00 0.00 0.00 32 1004.4
20210728091529 85 227 11.0 18.0 0.00 0.00 0.00 31 1004.4
20210728090020 85 227 9.0 18.0 0.00 0.00 0.00 31 1004.4
20210728084613 85 227 8.0 19.0 0.00 0.00 0.00 30 1004.3
20210728083021 86 227 10.0 21.0 0.00 0.00 0.00 29 1004.3
20210728081549 85 227 10.0 20.0 0.00 0.00 0.00 29 1004.3
20210728080015 85 227 11.0 18.0 0.00 0.00 0.00 28 1004.3
20210728074516 86 227 10.0 20.0 0.00 0.00 0.00 27 1004.3
20210728073017 86 227 10.0 20.0 0.00 0.00 0.00 27 1004.3
20210728071516 86 227 10.0 21.0 0.00 0.00 0.00 27 1004.3
20210728070024 85 227 13.0 20.0 0.00 0.00 0.00 28 1004.4
20210728064509 85 227 12.0 20.0 0.00 0.00 0.00 28 1004.5
20210728063007 87 227 12.0 19.0 0.00 0.00 0.00 27 1004.4
20210728060132 87 227 8.0 20.0 0.00 0.00 0.00 27 1004.3
20210728054651 87 227 9.0 20.0 0.00 0.00 0.00 27 1004.2
20210728053143 82 227 6.0 14.0 0.00 0.00 0.00 32 1004.3
20210728051708 80 227 0.0 0.0 0.00 0.00 0.00 43 1004.3
20210728050137 81 227 0.0 0.0 0.00 0.00 0.00 42 1004.4
20210728044710 81 227 0.0 0.0 0.00 0.00 0.00 43 1004.5
20210728043200 81 227 0.0 0.0 0.00 0.00 0.00 43 1004.5
20210728041627 81 227 0.0 0.0 0.00 0.00 0.00 44 1004.4
20210728040312 81 227 0.0 0.0 0.00 0.00 0.00 45 1004.4
20210728034735 82 227 0.0 0.0 0.00 0.00 0.00 43 1004.2
20210728033251 83 227 0.0 0.0 0.00 0.00 0.00 43 1004.1
20210728031733 85 227 0.0 0.0 0.00 0.00 0.00 41 1003.9
20210728030114 86 227 0.0 0.0 0.00 0.00 0.00 40 1003.8
20210728024629 87 227 0.0 1.0 0.00 0.00 0.00 39 1003.7
20210728023147 88 227 0.0 0.0 0.00 0.00 0.00 38 1003.5
20210728021625 91 227 0.0 3.0 0.00 0.00 0.00 37 1003.4
20210728020139 92 227 3.0 6.0 0.00 0.00 0.00 35 1003.2
20210728014722 94 227 0.0 0.0 0.00 0.00 0.00 29 1003.2
20210728013151 97 227 0.0 4.0 0.00 0.00 0.00 27 1003.1
20210728011652 100 227 3.0 9.0 0.00 0.00 0.00 24 1003.1
20210728010200 101 227 6.0 14.0 0.00 0.00 0.00 22 1003.1
20210728004648 102 227 4.0 14.0 0.00 0.00 0.00 21 1003.2
20210728003107 104 227 6.0 11.0 0.00 0.00 0.00 19 1003.3
20210728001624 104 227 10.0 16.0 0.00 0.00 0.00 18 1003.3
20210728000147 105 227 4.0 11.0 0.00 0.00 0.00 18 1003.5
20210727234618 104 227 0.0 9.0 0.00 0.00 0.00 18 1003.6
20210727233114 104 227 1.0 8.0 0.00 0.00 0.00 18 1003.8
20210727231618 106 227 6.0 11.0 0.00 0.00 0.00 17 1003.9
20210727230113 107 227 7.0 14.0 0.00 0.00 0.00 17 1003.9
20210727224616 106 227 7.0 15.0 0.00 0.00 0.00 18 1004.1
20210727223053 106 227 6.0 16.0 0.00 0.00 0.00 18 1004.3
20210727221632 106 227 8.0 22.0 0.00 0.00 0.00 19 1004.3
20210727220112 106 227 7.0 20.0 0.00 0.00 0.00 18 1004.5
20210727214555 105 227 5.0 18.0 0.00 0.00 0.00 19 1004.5
20210727213121 105 227 11.0 22.0 0.00 0.00 0.00 23 1004.7
20210727211605 104 227 11.0 19.0 0.00 0.00 0.00 25 1004.9
20210727210033 102 227 14.0 23.0 0.00 0.00 0.00 29 1005.2
20210727204529 102 227 11.0 18.0 0.00 0.00 0.00 30 1005.5
20210727203023 101 228 8.0 21.0 0.00 0.00 0.00 31 1005.7
20210727201517 100 227 7.0 21.0 0.00 0.00 0.00 31 1005.9
20210727200016 100 227 7.0 22.0 0.00 0.00 0.00 33 1006.2
20210727194519 99 227 12.0 22.0 0.00 0.00 0.00 32 1006.5
20210727193003 99 227 7.0 20.0 0.00 0.00 0.00 32 1006.6
20210727191503 99 227 15.0 23.0 0.00 0.00 0.00 29 1006.7
20210727190243 98 227 15.0 22.0 0.00 0.00 0.00 30 1007.1
20210727184718 98 227 10.0 20.0 0.00 0.00 0.00 32 1007.2
20210727183150 97 227 10.0 21.0 0.00 0.00 0.00 33 1007.4
20210727181638 96 227 15.0 23.0 0.00 0.00 0.00 33 1007.5
20210727180132 95 227 14.0 20.0 0.00 0.00 0.00 34 1007.6
20210727174629 95 227 13.0 19.0 0.00 0.00 0.00 34 1007.8
20210727173150 94 227 6.0 13.0 0.00 0.00 0.00 35 1007.8
20210727171624 93 227 11.0 22.0 0.00 0.00 0.00 33 1007.9
20210727170219 92 227 6.0 14.0 0.00 0.00 0.00 37 1007.9
20210727164604 91 227 6.0 15.0 0.00 0.00 0.00 39 1008.0
20210727163043 89 227 3.0 15.0 0.00 0.00 0.00 43 1008.1
20210727161602 88 227 5.0 13.0 0.00 0.00 0.00 44 1008.2
20210727160040 85 227 0.0 5.0 0.00 0.00 0.00 53 1008.4
20210727154559 83 227 0.0 6.0 0.00 0.00 0.00 56 1008.4
20210727153038 81 227 3.0 9.0 0.00 0.00 0.00 59 1008.5
20210727151541 78 227 0.0 6.0 0.00 0.00 0.00 61 1008.6
20210727150013 75 227 0.0 5.0 0.00 0.00 0.00 63 1008.8
20210727144511 73 227 0.0 2.0 0.00 0.00 0.00 64 1009.0
20210727143132 71 227 0.0 5.0 0.00 0.00 0.00 65 1009.0
20210727141644 70 227 0.0 2.0 0.00 0.00 0.00 66 1009.0
20210727140141 67 227 0.0 3.0 0.00 0.00 0.00 68 1009.1
20210727134625 63 227 0.0 0.0 0.00 0.00 0.00 76 1009.1
20210727133128 62 227 0.0 0.0 0.00 0.00 0.00 77 1009.2
20210727131626 61 227 0.0 0.0 0.00 0.00 0.00 80 1009.0
20210727130214 60 227 0.0 0.0 0.00 0.00 0.00 82 1008.9
20210727124634 58 227 0.0 0.0 0.00 0.00 0.00 83 1009.1
20210727123121 56 228 0.0 0.0 0.00 0.00 0.00 83 1009.1
20210727121913 56 228 0.0 0.0 0.00 0.00 0.00 83 1009.2
20210727120123 56 228 0.0 0.0 0.00 0.00 0.00 84 1009.0
20210727114616 55 228 0.0 1.0 0.00 0.00 0.00 83 1008.9
20210727113134 56 228 0.0 0.0 0.00 0.00 0.00 83 1008.8
20210727111707 56 228 0.0 0.0 0.00 0.00 0.00 81 1008.7
20210727110046 56 228 0.0 0.0 0.00 0.00 0.00 81 1008.6
20210727104655 56 227 0.0 0.0 0.00 0.00 0.00 80 1008.5
20210727103209 56 227 0.0 0.0 0.00 0.00 0.00 81 1008.5
20210727101616 57 227 0.0 0.0 0.00 0.00 0.00 78 1008.3
20210727100114 58 227 0.0 0.0 0.00 0.00 0.00 77 1008.0